sensor_id;sensor_type;location;lat;lon;timestamp;temperature;humidity
84176;DHT22;74306;40.114;18.304;2024-02-14T00:00:52;11.30;76.70
84176;DHT22;74306;40.114;18.304;2024-02-14T00:03:21;11.40;76.50
84176;DHT22;74306;40.114;18.304;2024-02-14T00:05:54;11.40;76.50
84176;DHT22;74306;40.114;18.304;2024-02-14T00:08:25;11.40;76.40
84176;DHT22;74306;40.114;18.304;2024-02-14T00:10:54;11.30;76.30
84176;DHT22;74306;40.114;18.304;2024-02-14T00:13:23;11.30;76.40
84176;DHT22;74306;40.114;18.304;2024-02-14T00:15:53;11.30;76.10
84176;DHT22;74306;40.114;18.304;2024-02-14T00:18:24;11.20;76.10
84176;DHT22;74306;40.114;18.304;2024-02-14T00:20:55;11.30;75.90
84176;DHT22;74306;40.114;18.304;2024-02-14T00:23:24;11.30;75.80
84176;DHT22;74306;40.114;18.304;2024-02-14T00:25:54;11.30;75.60
84176;DHT22;74306;40.114;18.304;2024-02-14T00:28:23;11.40;75.40
84176;DHT22;74306;40.114;18.304;2024-02-14T00:30:54;11.40;75.20
84176;DHT22;74306;40.114;18.304;2024-02-14T00:33:45;11.30;75.50
84176;DHT22;74306;40.114;18.304;2024-02-14T00:36:16;11.40;75.10
84176;DHT22;74306;40.114;18.304;2024-02-14T00:38:45;11.50;74.80
84176;DHT22;74306;40.114;18.304;2024-02-14T00:41:15;11.60;74.50
84176;DHT22;74306;40.114;18.304;2024-02-14T00:43:44;11.50;74.50
84176;DHT22;74306;40.114;18.304;2024-02-14T00:46:16;11.50;74.40
84176;DHT22;74306;40.114;18.304;2024-02-14T00:48:46;11.60;74.30
84176;DHT22;74306;40.114;18.304;2024-02-14T00:51:17;11.50;74.20
84176;DHT22;74306;40.114;18.304;2024-02-14T00:53:47;11.50;74.40
84176;DHT22;74306;40.114;18.304;2024-02-14T00:56:16;11.40;74.40
84176;DHT22;74306;40.114;18.304;2024-02-14T00:58:45;11.50;74.20
84176;DHT22;74306;40.114;18.304;2024-02-14T01:01:15;11.50;74.00
84176;DHT22;74306;40.114;18.304;2024-02-14T01:03:44;11.40;73.90
84176;DHT22;74306;40.114;18.304;2024-02-14T01:06:14;11.50;73.80
84176;DHT22;74306;40.114;18.304;2024-02-14T01:08:45;11.50;73.70
84176;DHT22;74306;40.114;18.304;2024-02-14T01:11:15;11.40;73.60
84176;DHT22;74306;40.114;18.304;2024-02-14T01:13:44;11.30;73.80
84176;DHT22;74306;40.114;18.304;2024-02-14T01:16:13;11.20;74.10
84176;DHT22;74306;40.114;18.304;2024-02-14T01:18:43;11.30;74.00
84176;DHT22;74306;40.114;18.304;2024-02-14T01:21:12;11.30;74.00
84176;DHT22;74306;40.114;18.304;2024-02-14T01:23:43;11.30;73.70
84176;DHT22;74306;40.114;18.304;2024-02-14T01:26:13;11.30;74.10
84176;DHT22;74306;40.114;18.304;2024-02-14T01:28:42;11.30;73.80
84176;DHT22;74306;40.114;18.304;2024-02-14T01:31:12;11.30;73.70
84176;DHT22;74306;40.114;18.304;2024-02-14T01:33:42;11.20;73.70
84176;DHT22;74306;40.114;18.304;2024-02-14T01:36:11;11.10;74.30
84176;DHT22;74306;40.114;18.304;2024-02-14T01:38:40;11.10;74.10
84176;DHT22;74306;40.114;18.304;2024-02-14T01:41:12;11.30;73.70
84176;DHT22;74306;40.114;18.304;2024-02-14T01:43:42;11.30;73.50
84176;DHT22;74306;40.114;18.304;2024-02-14T01:46:12;11.20;73.50
84176;DHT22;74306;40.114;18.304;2024-02-14T01:48:52;11.20;73.70
84176;DHT22;74306;40.114;18.304;2024-02-14T01:51:24;11.30;73.50
84176;DHT22;74306;40.114;18.304;2024-02-14T01:53:55;11.30;73.50
84176;DHT22;74306;40.114;18.304;2024-02-14T01:56:26;11.30;73.60
84176;DHT22;74306;40.114;18.304;2024-02-14T01:58:56;11.30;73.40
84176;DHT22;74306;40.114;18.304;2024-02-14T02:01:26;11.30;73.50
84176;DHT22;74306;40.114;18.304;2024-02-14T02:03:55;11.30;73.30
84176;DHT22;74306;40.114;18.304;2024-02-14T02:06:25;11.40;73.10
84176;DHT22;74306;40.114;18.304;2024-02-14T02:08:55;11.40;72.70
84176;DHT22;74306;40.114;18.304;2024-02-14T02:11:27;11.40;72.60
84176;DHT22;74306;40.114;18.304;2024-02-14T02:14:17;11.50;72.20
84176;DHT22;74306;40.114;18.304;2024-02-14T02:17:07;11.50;72.00
84176;DHT22;74306;40.114;18.304;2024-02-14T02:19:59;11.40;71.80
84176;DHT22;74306;40.114;18.304;2024-02-14T02:22:35;11.40;71.90
84176;DHT22;74306;40.114;18.304;2024-02-14T02:25:26;11.30;72.00
84176;DHT22;74306;40.114;18.304;2024-02-14T02:28:14;11.30;72.10
84176;DHT22;74306;40.114;18.304;2024-02-14T02:30:46;11.40;71.90
84176;DHT22;74306;40.114;18.304;2024-02-14T02:33:15;11.40;71.90
84176;DHT22;74306;40.114;18.304;2024-02-14T02:35:46;11.20;72.20
84176;DHT22;74306;40.114;18.304;2024-02-14T02:38:36;11.20;72.50
84176;DHT22;74306;40.114;18.304;2024-02-14T02:41:27;11.00;72.80
84176;DHT22;74306;40.114;18.304;2024-02-14T02:44:15;11.10;72.90
84176;DHT22;74306;40.114;18.304;2024-02-14T02:47:05;11.10;72.90
84176;DHT22;74306;40.114;18.304;2024-02-14T02:49:54;11.10;72.80
84176;DHT22;74306;40.114;18.304;2024-02-14T02:52:45;11.10;72.80
84176;DHT22;74306;40.114;18.304;2024-02-14T02:55:35;11.10;72.80
84176;DHT22;74306;40.114;18.304;2024-02-14T02:58:11;11.10;72.70
84176;DHT22;74306;40.114;18.304;2024-02-14T03:00:44;10.90;73.10
84176;DHT22;74306;40.114;18.304;2024-02-14T03:03:21;10.70;73.00
84176;DHT22;74306;40.114;18.304;2024-02-14T03:06:07;10.50;73.20
84176;DHT22;74306;40.114;18.304;2024-02-14T03:08:56;10.40;73.60
84176;DHT22;74306;40.114;18.304;2024-02-14T03:11:46;10.40;73.40
84176;DHT22;74306;40.114;18.304;2024-02-14T03:14:37;10.50;73.20
84176;DHT22;74306;40.114;18.304;2024-02-14T03:17:27;10.50;72.90
84176;DHT22;74306;40.114;18.304;2024-02-14T03:19:57;10.40;73.20
84176;DHT22;74306;40.114;18.304;2024-02-14T03:22:26;10.30;73.20
84176;DHT22;74306;40.114;18.304;2024-02-14T03:24:55;10.30;73.10
84176;DHT22;74306;40.114;18.304;2024-02-14T03:27:26;10.30;73.10
84176;DHT22;74306;40.114;18.304;2024-02-14T03:29:57;10.30;73.10
84176;DHT22;74306;40.114;18.304;2024-02-14T03:32:32;10.30;73.20
84176;DHT22;74306;40.114;18.304;2024-02-14T03:35:02;10.30;72.90
84176;DHT22;74306;40.114;18.304;2024-02-14T03:37:32;10.50;72.40
84176;DHT22;74306;40.114;18.304;2024-02-14T03:40:01;10.60;72.10
84176;DHT22;74306;40.114;18.304;2024-02-14T03:42:32;10.80;71.70
84176;DHT22;74306;40.114;18.304;2024-02-14T03:45:04;10.80;71.50
84176;DHT22;74306;40.114;18.304;2024-02-14T03:47:33;10.80;71.30
84176;DHT22;74306;40.114;18.304;2024-02-14T03:50:04;10.80;71.10
84176;DHT22;74306;40.114;18.304;2024-02-14T03:52:33;10.90;71.00
84176;DHT22;74306;40.114;18.304;2024-02-14T03:55:04;10.80;70.90
84176;DHT22;74306;40.114;18.304;2024-02-14T03:57:34;10.80;71.10
84176;DHT22;74306;40.114;18.304;2024-02-14T04:00:09;10.80;71.30
84176;DHT22;74306;40.114;18.304;2024-02-14T04:02:40;10.70;71.20
84176;DHT22;74306;40.114;18.304;2024-02-14T04:05:09;10.70;71.20
84176;DHT22;74306;40.114;18.304;2024-02-14T04:07:39;10.70;71.30
84176;DHT22;74306;40.114;18.304;2024-02-14T04:10:08;10.70;71.50
84176;DHT22;74306;40.114;18.304;2024-02-14T04:12:38;10.70;71.40
84176;DHT22;74306;40.114;18.304;2024-02-14T04:15:10;10.70;71.30
84176;DHT22;74306;40.114;18.304;2024-02-14T04:17:48;10.70;71.10
84176;DHT22;74306;40.114;18.304;2024-02-14T04:20:18;10.60;71.20
84176;DHT22;74306;40.114;18.304;2024-02-14T04:22:48;10.70;71.10
84176;DHT22;74306;40.114;18.304;2024-02-14T04:25:18;10.70;71.10
84176;DHT22;74306;40.114;18.304;2024-02-14T04:27:47;10.70;70.70
84176;DHT22;74306;40.114;18.304;2024-02-14T04:30:18;10.70;70.40
84176;DHT22;74306;40.114;18.304;2024-02-14T04:33:04;10.40;71.20
84176;DHT22;74306;40.114;18.304;2024-02-14T04:35:38;10.30;71.50
84176;DHT22;74306;40.114;18.304;2024-02-14T04:38:07;10.40;71.30
84176;DHT22;74306;40.114;18.304;2024-02-14T04:40:37;10.40;71.10
84176;DHT22;74306;40.114;18.304;2024-02-14T04:43:07;10.40;71.20
84176;DHT22;74306;40.114;18.304;2024-02-14T04:45:37;10.40;71.30
84176;DHT22;74306;40.114;18.304;2024-02-14T04:48:09;10.10;72.20
84176;DHT22;74306;40.114;18.304;2024-02-14T04:50:39;9.90;72.90
84176;DHT22;74306;40.114;18.304;2024-02-14T04:53:08;10.00;72.60
84176;DHT22;74306;40.114;18.304;2024-02-14T04:55:38;10.00;72.30
84176;DHT22;74306;40.114;18.304;2024-02-14T04:58:07;10.10;72.30
84176;DHT22;74306;40.114;18.304;2024-02-14T05:00:38;10.10;72.00
84176;DHT22;74306;40.114;18.304;2024-02-14T05:03:07;10.10;72.00
84176;DHT22;74306;40.114;18.304;2024-02-14T05:05:40;10.20;71.60
84176;DHT22;74306;40.114;18.304;2024-02-14T05:08:09;10.20;71.20
84176;DHT22;74306;40.114;18.304;2024-02-14T05:10:38;10.20;71.30
84176;DHT22;74306;40.114;18.304;2024-02-14T05:13:08;10.20;71.10
84176;DHT22;74306;40.114;18.304;2024-02-14T05:15:39;10.00;71.60
84176;DHT22;74306;40.114;18.304;2024-02-14T05:18:09;9.80;71.90
84176;DHT22;74306;40.114;18.304;2024-02-14T05:20:39;9.90;71.60
84176;DHT22;74306;40.114;18.304;2024-02-14T05:23:08;9.80;71.50
84176;DHT22;74306;40.114;18.304;2024-02-14T05:25:39;9.70;71.80
84176;DHT22;74306;40.114;18.304;2024-02-14T05:28:08;9.80;71.70
84176;DHT22;74306;40.114;18.304;2024-02-14T05:30:43;9.80;71.50
84176;DHT22;74306;40.114;18.304;2024-02-14T05:33:25;9.70;71.80
84176;DHT22;74306;40.114;18.304;2024-02-14T05:35:54;9.70;71.60
84176;DHT22;74306;40.114;18.304;2024-02-14T05:38:24;9.70;71.40
84176;DHT22;74306;40.114;18.304;2024-02-14T05:40:53;9.80;71.30
84176;DHT22;74306;40.114;18.304;2024-02-14T05:43:23;9.70;71.40
84176;DHT22;74306;40.114;18.304;2024-02-14T05:45:54;9.70;71.40
84176;DHT22;74306;40.114;18.304;2024-02-14T05:48:24;9.70;71.40
84176;DHT22;74306;40.114;18.304;2024-02-14T05:50:54;9.80;71.10
84176;DHT22;74306;40.114;18.304;2024-02-14T05:53:23;9.80;70.90
84176;DHT22;74306;40.114;18.304;2024-02-14T05:55:53;9.80;70.90
84176;DHT22;74306;40.114;18.304;2024-02-14T05:58:22;9.80;71.10
84176;DHT22;74306;40.114;18.304;2024-02-14T06:00:56;10.00;71.10
84176;DHT22;74306;40.114;18.304;2024-02-14T06:03:25;10.10;71.00
84176;DHT22;74306;40.114;18.304;2024-02-14T06:05:55;10.20;70.80
84176;DHT22;74306;40.114;18.304;2024-02-14T06:08:24;10.30;70.30
84176;DHT22;74306;40.114;18.304;2024-02-14T06:10:55;10.50;70.10
84176;DHT22;74306;40.114;18.304;2024-02-14T06:13:24;10.50;70.00
84176;DHT22;74306;40.114;18.304;2024-02-14T06:15:53;10.60;69.70
84176;DHT22;74306;40.114;18.304;2024-02-14T06:18:24;10.70;69.50
84176;DHT22;74306;40.114;18.304;2024-02-14T06:20:54;10.70;69.60
84176;DHT22;74306;40.114;18.304;2024-02-14T06:23:23;10.80;69.40
84176;DHT22;74306;40.114;18.304;2024-02-14T06:25:53;10.60;69.80
84176;DHT22;74306;40.114;18.304;2024-02-14T06:28:23;10.70;69.90
84176;DHT22;74306;40.114;18.304;2024-02-14T06:30:53;10.80;69.60
84176;DHT22;74306;40.114;18.304;2024-02-14T06:33:24;10.80;69.40
84176;DHT22;74306;40.114;18.304;2024-02-14T06:35:52;10.80;69.10
84176;DHT22;74306;40.114;18.304;2024-02-14T06:38:21;10.90;68.90
84176;DHT22;74306;40.114;18.304;2024-02-14T06:40:51;11.00;68.60
84176;DHT22;74306;40.114;18.304;2024-02-14T06:43:20;11.00;68.50
84176;DHT22;74306;40.114;18.304;2024-02-14T06:45:49;11.10;68.20
84176;DHT22;74306;40.114;18.304;2024-02-14T06:48:25;11.10;68.10
84176;DHT22;74306;40.114;18.304;2024-02-14T06:50:54;11.10;67.90
84176;DHT22;74306;40.114;18.304;2024-02-14T06:53:24;11.20;67.80
84176;DHT22;74306;40.114;18.304;2024-02-14T06:55:53;11.20;67.10
84176;DHT22;74306;40.114;18.304;2024-02-14T06:58:22;11.30;67.20
84176;DHT22;74306;40.114;18.304;2024-02-14T07:00:52;11.40;66.70
84176;DHT22;74306;40.114;18.304;2024-02-14T07:03:21;11.40;66.60
84176;DHT22;74306;40.114;18.304;2024-02-14T07:05:52;11.40;66.40
84176;DHT22;74306;40.114;18.304;2024-02-14T07:08:21;11.50;66.20
84176;DHT22;74306;40.114;18.304;2024-02-14T07:10:51;11.60;66.10
84176;DHT22;74306;40.114;18.304;2024-02-14T07:13:21;11.60;65.70
84176;DHT22;74306;40.114;18.304;2024-02-14T07:15:50;11.70;65.40
84176;DHT22;74306;40.114;18.304;2024-02-14T07:18:20;11.70;65.40
84176;DHT22;74306;40.114;18.304;2024-02-14T07:20:49;11.70;65.40
84176;DHT22;74306;40.114;18.304;2024-02-14T07:23:20;11.90;65.40
84176;DHT22;74306;40.114;18.304;2024-02-14T07:25:50;11.80;66.10
84176;DHT22;74306;40.114;18.304;2024-02-14T07:28:19;11.80;66.10
84176;DHT22;74306;40.114;18.304;2024-02-14T07:30:48;11.90;65.90
84176;DHT22;74306;40.114;18.304;2024-02-14T07:33:17;11.90;65.50
84176;DHT22;74306;40.114;18.304;2024-02-14T07:35:47;12.00;65.30
84176;DHT22;74306;40.114;18.304;2024-02-14T07:38:16;12.00;65.20
84176;DHT22;74306;40.114;18.304;2024-02-14T07:40:47;12.20;64.50
84176;DHT22;74306;40.114;18.304;2024-02-14T07:43:22;12.30;63.00
84176;DHT22;74306;40.114;18.304;2024-02-14T07:45:51;12.50;62.00
84176;DHT22;74306;40.114;18.304;2024-02-14T07:48:20;12.70;61.20
84176;DHT22;74306;40.114;18.304;2024-02-14T07:50:50;12.80;61.00
84176;DHT22;74306;40.114;18.304;2024-02-14T07:53:19;12.80;60.60
84176;DHT22;74306;40.114;18.304;2024-02-14T07:55:50;12.90;60.40
84176;DHT22;74306;40.114;18.304;2024-02-14T07:58:20;12.90;59.70
84176;DHT22;74306;40.114;18.304;2024-02-14T08:00:49;13.10;59.00
84176;DHT22;74306;40.114;18.304;2024-02-14T08:03:18;13.10;58.50
84176;DHT22;74306;40.114;18.304;2024-02-14T08:05:48;13.10;58.30
84176;DHT22;74306;40.114;18.304;2024-02-14T08:08:17;13.20;57.90
84176;DHT22;74306;40.114;18.304;2024-02-14T08:10:47;13.10;57.90
84176;DHT22;74306;40.114;18.304;2024-02-14T08:13:17;13.20;57.40
84176;DHT22;74306;40.114;18.304;2024-02-14T08:15:47;13.30;57.10
84176;DHT22;74306;40.114;18.304;2024-02-14T08:18:17;13.30;56.00
84176;DHT22;74306;40.114;18.304;2024-02-14T08:20:46;13.50;55.20
84176;DHT22;74306;40.114;18.304;2024-02-14T08:23:17;13.40;54.90
84176;DHT22;74306;40.114;18.304;2024-02-14T08:25:47;13.40;54.00
84176;DHT22;74306;40.114;18.304;2024-02-14T08:28:19;13.50;53.60
84176;DHT22;74306;40.114;18.304;2024-02-14T08:30:48;13.30;52.80
84176;DHT22;74306;40.114;18.304;2024-02-14T08:33:18;13.40;53.30
84176;DHT22;74306;40.114;18.304;2024-02-14T08:35:47;13.50;53.10
84176;DHT22;74306;40.114;18.304;2024-02-14T08:38:17;13.40;52.60
84176;DHT22;74306;40.114;18.304;2024-02-14T08:40:46;13.30;52.10
84176;DHT22;74306;40.114;18.304;2024-02-14T08:43:18;13.40;52.60
84176;DHT22;74306;40.114;18.304;2024-02-14T08:45:47;13.50;51.90
84176;DHT22;74306;40.114;18.304;2024-02-14T08:48:17;13.50;51.90
84176;DHT22;74306;40.114;18.304;2024-02-14T08:50:47;13.60;51.80
84176;DHT22;74306;40.114;18.304;2024-02-14T08:53:16;13.70;51.10
84176;DHT22;74306;40.114;18.304;2024-02-14T08:55:45;13.70;51.10
84176;DHT22;74306;40.114;18.304;2024-02-14T08:58:15;13.80;51.00
84176;DHT22;74306;40.114;18.304;2024-02-14T09:00:46;13.90;50.80
84176;DHT22;74306;40.114;18.304;2024-02-14T09:03:16;13.90;50.50
84176;DHT22;74306;40.114;18.304;2024-02-14T09:05:46;14.00;50.60
84176;DHT22;74306;40.114;18.304;2024-02-14T09:08:16;13.90;50.30
84176;DHT22;74306;40.114;18.304;2024-02-14T09:10:46;13.80;50.60
84176;DHT22;74306;40.114;18.304;2024-02-14T09:13:16;13.50;50.50
84176;DHT22;74306;40.114;18.304;2024-02-14T09:15:47;13.70;50.50
84176;DHT22;74306;40.114;18.304;2024-02-14T09:18:18;13.90;50.40
84176;DHT22;74306;40.114;18.304;2024-02-14T09:20:47;14.20;49.50
84176;DHT22;74306;40.114;18.304;2024-02-14T09:23:18;14.50;49.50
84176;DHT22;74306;40.114;18.304;2024-02-14T09:25:48;14.50;49.50
84176;DHT22;74306;40.114;18.304;2024-02-14T09:28:18;14.50;49.40
84176;DHT22;74306;40.114;18.304;2024-02-14T09:30:48;14.40;50.00
84176;DHT22;74306;40.114;18.304;2024-02-14T09:33:18;14.40;50.60
84176;DHT22;74306;40.114;18.304;2024-02-14T09:35:48;14.20;50.60
84176;DHT22;74306;40.114;18.304;2024-02-14T09:38:20;14.30;51.40
84176;DHT22;74306;40.114;18.304;2024-02-14T09:40:51;14.40;50.90
84176;DHT22;74306;40.114;18.304;2024-02-14T09:43:28;14.50;50.70
84176;DHT22;74306;40.114;18.304;2024-02-14T09:46:02;14.40;51.10
84176;DHT22;74306;40.114;18.304;2024-02-14T09:48:32;14.60;50.50
84176;DHT22;74306;40.114;18.304;2024-02-14T09:51:03;14.40;50.60
84176;DHT22;74306;40.114;18.304;2024-02-14T09:53:32;14.50;50.70
84176;DHT22;74306;40.114;18.304;2024-02-14T09:56:03;14.40;51.00
84176;DHT22;74306;40.114;18.304;2024-02-14T09:58:32;14.80;50.70
84176;DHT22;74306;40.114;18.304;2024-02-14T10:01:06;14.80;49.70
84176;DHT22;74306;40.114;18.304;2024-02-14T10:03:36;14.80;49.80
84176;DHT22;74306;40.114;18.304;2024-02-14T10:06:06;15.10;49.70
84176;DHT22;74306;40.114;18.304;2024-02-14T10:08:35;15.20;49.60
84176;DHT22;74306;40.114;18.304;2024-02-14T10:11:09;15.00;49.50
84176;DHT22;74306;40.114;18.304;2024-02-14T10:13:39;14.90;49.60
84176;DHT22;74306;40.114;18.304;2024-02-14T10:16:10;14.80;49.90
84176;DHT22;74306;40.114;18.304;2024-02-14T10:18:41;14.80;49.90
84176;DHT22;74306;40.114;18.304;2024-02-14T10:21:15;15.60;48.50
84176;DHT22;74306;40.114;18.304;2024-02-14T10:23:47;15.90;47.30
84176;DHT22;74306;40.114;18.304;2024-02-14T10:26:19;16.00;47.30
84176;DHT22;74306;40.114;18.304;2024-02-14T10:28:49;16.00;47.60
84176;DHT22;74306;40.114;18.304;2024-02-14T10:31:21;15.60;48.00
84176;DHT22;74306;40.114;18.304;2024-02-14T10:33:54;15.50;48.70
84176;DHT22;74306;40.114;18.304;2024-02-14T10:36:24;15.40;49.00
84176;DHT22;74306;40.114;18.304;2024-02-14T10:38:54;15.70;49.20
84176;DHT22;74306;40.114;18.304;2024-02-14T10:41:27;16.50;46.80
84176;DHT22;74306;40.114;18.304;2024-02-14T10:44:03;16.40;46.90
84176;DHT22;74306;40.114;18.304;2024-02-14T10:46:37;17.00;45.40
84176;DHT22;74306;40.114;18.304;2024-02-14T10:49:08;16.80;45.70
84176;DHT22;74306;40.114;18.304;2024-02-14T10:51:40;16.40;46.60
84176;DHT22;74306;40.114;18.304;2024-02-14T10:54:12;16.30;47.40
84176;DHT22;74306;40.114;18.304;2024-02-14T10:56:48;17.20;45.50
84176;DHT22;74306;40.114;18.304;2024-02-14T10:59:21;17.30;44.90
84176;DHT22;74306;40.114;18.304;2024-02-14T11:01:52;17.00;45.10
84176;DHT22;74306;40.114;18.304;2024-02-14T11:04:22;17.30;44.20
84176;DHT22;74306;40.114;18.304;2024-02-14T11:06:53;16.80;45.30
84176;DHT22;74306;40.114;18.304;2024-02-14T11:09:31;16.10;46.30
84176;DHT22;74306;40.114;18.304;2024-02-14T11:12:03;17.60;44.30
84176;DHT22;74306;40.114;18.304;2024-02-14T11:14:33;18.90;41.20
84176;DHT22;74306;40.114;18.304;2024-02-14T11:17:05;19.50;39.00
84176;DHT22;74306;40.114;18.304;2024-02-14T11:19:37;17.80;42.20
84176;DHT22;74306;40.114;18.304;2024-02-14T11:22:13;17.80;42.30
84176;DHT22;74306;40.114;18.304;2024-02-14T11:24:45;18.90;40.90
84176;DHT22;74306;40.114;18.304;2024-02-14T11:27:17;19.80;38.50
84176;DHT22;74306;40.114;18.304;2024-02-14T11:29:53;19.90;38.10
84176;DHT22;74306;40.114;18.304;2024-02-14T11:32:27;18.20;40.50
84176;DHT22;74306;40.114;18.304;2024-02-14T11:34:57;18.80;39.70
84176;DHT22;74306;40.114;18.304;2024-02-14T11:37:28;17.40;41.50
84176;DHT22;74306;40.114;18.304;2024-02-14T11:39:58;18.10;40.90
84176;DHT22;74306;40.114;18.304;2024-02-14T11:42:27;19.10;39.10
84176;DHT22;74306;40.114;18.304;2024-02-14T11:44:57;20.40;37.00
84176;DHT22;74306;40.114;18.304;2024-02-14T11:47:28;21.40;35.00
84176;DHT22;74306;40.114;18.304;2024-02-14T11:49:57;21.70;35.00
84176;DHT22;74306;40.114;18.304;2024-02-14T11:52:27;22.00;34.50
84176;DHT22;74306;40.114;18.304;2024-02-14T11:54:57;20.70;36.20
84176;DHT22;74306;40.114;18.304;2024-02-14T11:57:27;20.80;35.40
84176;DHT22;74306;40.114;18.304;2024-02-14T11:59:58;20.60;35.60
84176;DHT22;74306;40.114;18.304;2024-02-14T12:02:29;20.60;35.80
84176;DHT22;74306;40.114;18.304;2024-02-14T12:05:00;20.70;35.80
84176;DHT22;74306;40.114;18.304;2024-02-14T12:07:31;20.10;36.00
84176;DHT22;74306;40.114;18.304;2024-02-14T12:10:01;20.80;35.70
84176;DHT22;74306;40.114;18.304;2024-02-14T12:12:30;21.10;34.80
84176;DHT22;74306;40.114;18.304;2024-02-14T12:15:01;21.40;35.10
84176;DHT22;74306;40.114;18.304;2024-02-14T12:17:33;22.60;33.70
84176;DHT22;74306;40.114;18.304;2024-02-14T12:20:08;22.80;33.00
84176;DHT22;74306;40.114;18.304;2024-02-14T12:22:39;23.20;32.30
84176;DHT22;74306;40.114;18.304;2024-02-14T12:25:09;22.90;32.80
84176;DHT22;74306;40.114;18.304;2024-02-14T12:27:40;22.70;33.00
84176;DHT22;74306;40.114;18.304;2024-02-14T12:30:12;22.40;33.30
84176;DHT22;74306;40.114;18.304;2024-02-14T12:32:43;21.40;35.50
84176;DHT22;74306;40.114;18.304;2024-02-14T12:35:14;22.00;34.80
84176;DHT22;74306;40.114;18.304;2024-02-14T12:37:43;21.70;35.70
84176;DHT22;74306;40.114;18.304;2024-02-14T12:40:13;22.10;34.70
84176;DHT22;74306;40.114;18.304;2024-02-14T12:42:42;21.60;35.40
84176;DHT22;74306;40.114;18.304;2024-02-14T12:45:12;21.50;34.10
84176;DHT22;74306;40.114;18.304;2024-02-14T12:47:44;20.90;36.40
84176;DHT22;74306;40.114;18.304;2024-02-14T12:50:14;22.50;34.90
84176;DHT22;74306;40.114;18.304;2024-02-14T12:52:43;22.80;34.40
84176;DHT22;74306;40.114;18.304;2024-02-14T12:55:13;22.00;34.20
84176;DHT22;74306;40.114;18.304;2024-02-14T12:57:43;21.80;35.30
84176;DHT22;74306;40.114;18.304;2024-02-14T13:00:14;22.20;34.70
84176;DHT22;74306;40.114;18.304;2024-02-14T13:02:45;22.10;34.70
84176;DHT22;74306;40.114;18.304;2024-02-14T13:05:16;21.40;36.50
84176;DHT22;74306;40.114;18.304;2024-02-14T13:07:45;22.50;34.80
84176;DHT22;74306;40.114;18.304;2024-02-14T13:10:15;22.10;35.10
84176;DHT22;74306;40.114;18.304;2024-02-14T13:12:44;20.80;37.60
84176;DHT22;74306;40.114;18.304;2024-02-14T13:15:14;21.60;36.40
84176;DHT22;74306;40.114;18.304;2024-02-14T13:17:45;22.30;35.10
84176;DHT22;74306;40.114;18.304;2024-02-14T13:20:14;21.80;35.10
84176;DHT22;74306;40.114;18.304;2024-02-14T13:22:44;21.70;35.80
84176;DHT22;74306;40.114;18.304;2024-02-14T13:25:14;21.60;34.90
84176;DHT22;74306;40.114;18.304;2024-02-14T13:27:45;20.70;34.90
84176;DHT22;74306;40.114;18.304;2024-02-14T13:30:14;20.60;35.40
84176;DHT22;74306;40.114;18.304;2024-02-14T13:32:45;20.80;35.10
84176;DHT22;74306;40.114;18.304;2024-02-14T13:35:14;21.00;35.50
84176;DHT22;74306;40.114;18.304;2024-02-14T13:37:44;21.40;34.80
84176;DHT22;74306;40.114;18.304;2024-02-14T13:40:14;21.10;34.70
84176;DHT22;74306;40.114;18.304;2024-02-14T13:42:43;21.30;34.10
84176;DHT22;74306;40.114;18.304;2024-02-14T13:45:13;21.60;33.80
84176;DHT22;74306;40.114;18.304;2024-02-14T13:47:45;21.50;33.50
84176;DHT22;74306;40.114;18.304;2024-02-14T13:50:14;21.80;33.00
84176;DHT22;74306;40.114;18.304;2024-02-14T13:52:44;22.10;32.30
84176;DHT22;74306;40.114;18.304;2024-02-14T13:55:13;21.10;33.40
84176;DHT22;74306;40.114;18.304;2024-02-14T13:57:42;20.70;34.40
84176;DHT22;74306;40.114;18.304;2024-02-14T14:00:12;20.30;35.40
84176;DHT22;74306;40.114;18.304;2024-02-14T14:02:42;19.40;36.50
84176;DHT22;74306;40.114;18.304;2024-02-14T14:05:13;18.90;37.70
84176;DHT22;74306;40.114;18.304;2024-02-14T14:07:43;18.80;38.20
84176;DHT22;74306;40.114;18.304;2024-02-14T14:10:16;18.80;38.30
84176;DHT22;74306;40.114;18.304;2024-02-14T14:12:45;18.50;39.10
84176;DHT22;74306;40.114;18.304;2024-02-14T14:15:15;18.70;38.90
84176;DHT22;74306;40.114;18.304;2024-02-14T14:17:45;18.70;39.40
84176;DHT22;74306;40.114;18.304;2024-02-14T14:20:16;18.00;40.40
84176;DHT22;74306;40.114;18.304;2024-02-14T14:22:46;17.40;41.40
84176;DHT22;74306;40.114;18.304;2024-02-14T14:25:16;16.50;43.30
84176;DHT22;74306;40.114;18.304;2024-02-14T14:27:46;16.10;45.30
84176;DHT22;74306;40.114;18.304;2024-02-14T14:30:15;15.80;46.40
84176;DHT22;74306;40.114;18.304;2024-02-14T14:32:45;15.70;45.40
84176;DHT22;74306;40.114;18.304;2024-02-14T14:35:16;15.80;44.50
84176;DHT22;74306;40.114;18.304;2024-02-14T14:37:45;15.80;43.00
84176;DHT22;74306;40.114;18.304;2024-02-14T14:40:15;15.70;41.60
84176;DHT22;74306;40.114;18.304;2024-02-14T14:42:45;15.50;42.10
84176;DHT22;74306;40.114;18.304;2024-02-14T14:45:15;15.30;43.10
84176;DHT22;74306;40.114;18.304;2024-02-14T14:47:44;15.20;43.70
84176;DHT22;74306;40.114;18.304;2024-02-14T14:50:16;14.90;44.30
84176;DHT22;74306;40.114;18.304;2024-02-14T14:52:46;14.80;45.00
84176;DHT22;74306;40.114;18.304;2024-02-14T14:55:16;15.00;46.00
84176;DHT22;74306;40.114;18.304;2024-02-14T14:57:45;14.90;46.60
84176;DHT22;74306;40.114;18.304;2024-02-14T15:00:15;15.20;46.50
84176;DHT22;74306;40.114;18.304;2024-02-14T15:02:46;15.10;47.70
84176;DHT22;74306;40.114;18.304;2024-02-14T15:05:19;15.20;47.60
84176;DHT22;74306;40.114;18.304;2024-02-14T15:07:48;15.20;47.40
84176;DHT22;74306;40.114;18.304;2024-02-14T15:10:18;14.50;49.00
84176;DHT22;74306;40.114;18.304;2024-02-14T15:12:47;14.70;49.10
84176;DHT22;74306;40.114;18.304;2024-02-14T15:15:16;14.70;48.60
84176;DHT22;74306;40.114;18.304;2024-02-14T15:17:47;14.60;48.60
84176;DHT22;74306;40.114;18.304;2024-02-14T15:20:18;14.50;48.60
84176;DHT22;74306;40.114;18.304;2024-02-14T15:22:48;14.20;49.70
84176;DHT22;74306;40.114;18.304;2024-02-14T15:25:17;14.30;49.90
84176;DHT22;74306;40.114;18.304;2024-02-14T15:27:47;14.20;49.90
84176;DHT22;74306;40.114;18.304;2024-02-14T15:30:23;14.30;49.80
84176;DHT22;74306;40.114;18.304;2024-02-14T15:33:10;14.10;49.30
84176;DHT22;74306;40.114;18.304;2024-02-14T15:35:55;14.00;49.80
84176;DHT22;74306;40.114;18.304;2024-02-14T15:38:25;14.10;49.80
84176;DHT22;74306;40.114;18.304;2024-02-14T15:40:54;14.20;49.80
84176;DHT22;74306;40.114;18.304;2024-02-14T15:43:30;14.20;49.90